Time;durP1;ratioP1;P1;durP2;ratioP2;P2;SDS_P1;SDS_P2;PMS_P1;PMS_P2;Temp;Humidity;BMP_temperature;BMP_pressure;BME280_temperature;BME280_humidity;BME280_pressure;Samples;Min_cycle;Max_cycle;Signal;HPM_P1;HPM_P2
2021/11/07 00:04:23;;;;;;;34.92;18.98;;;;;;;9.75;70.89;96361.53;5048993;28;20081;-76
2021/11/07 00:06:54;;;;;;;33.67;19.02;;;;;;;9.74;70.95;96362.53;5048185;28;20028;-76
2021/11/07 00:11:57;;;;;;;32.65;18.17;;;;;;;9.79;71.46;96364.75;5031575;28;20041;-76
2021/11/07 00:14:22;;;;;;;32.88;17.38;;;;;;;9.87;71.33;96383.63;5034407;28;20097;-75
2021/11/07 00:16:48;;;;;;;28.35;17.27;;;;;;;9.76;71.81;96379.31;5037304;28;20037;-75
2021/11/07 00:30:17;;;;;;;29.23;17.92;;;;;;;9.69;73.71;96367.47;5045909;28;20254;-75
2021/11/07 00:32:45;;;;;;;30.27;17.15;;;;;;;9.71;73.47;96368.19;5036915;28;20045;-75
2021/11/07 00:37:43;;;;;;;36.40;19.17;;;;;;;9.80;72.67;96361.09;5037619;28;20530;-75
2021/11/07 00:42:48;;;;;;;34.30;17.95;;;;;;;9.74;73.56;96356.31;5045032;28;20033;-75
2021/11/07 00:50:56;;;;;;;34.53;17.60;;;;;;;9.73;72.22;96347.47;5036186;28;20037;-76
2021/11/07 00:53:41;;;;;;;32.22;18.58;;;;;;;9.71;72.99;96345.91;5035837;28;20032;-75
2021/11/07 00:56:16;;;;;;;28.42;16.73;;;;;;;9.77;72.25;96345.31;5043489;28;20082;-75
2021/11/07 01:01:24;;;;;;;29.92;14.38;;;;;;;9.88;72.17;96342.44;5044736;28;20033;-76
2021/11/07 01:03:50;;;;;;;27.00;15.98;;;;;;;9.94;71.73;96345.50;5042969;28;20108;-76
2021/11/07 01:06:16;;;;;;;22.75;13.05;;;;;;;9.86;72.57;96340.91;5041976;28;20124;-76
2021/11/07 01:08:41;;;;;;;26.88;13.00;;;;;;;9.88;72.47;96326.34;5045400;28;20021;-76
2021/11/07 01:11:07;;;;;;;22.85;12.55;;;;;;;9.86;72.23;96327.50;5037640;28;20444;-74
2021/11/07 01:13:32;;;;;;;21.73;12.90;;;;;;;9.88;72.38;96321.00;5042710;28;20039;-73
2021/11/07 01:15:58;;;;;;;23.00;14.13;;;;;;;9.83;73.15;96317.94;5042518;28;20067;-74
2021/11/07 01:18:23;;;;;;;26.00;14.57;;;;;;;9.90;72.66;96312.81;5042868;28;20512;-74
2021/11/07 01:20:49;;;;;;;22.02;14.20;;;;;;;9.89;72.63;96311.13;5043816;28;20568;-74
2021/11/07 01:23:29;;;;;;;22.52;12.82;;;;;;;9.88;73.02;96315.63;5044624;28;20086;-74
2021/11/07 01:26:06;;;;;;;26.27;15.18;;;;;;;9.97;72.54;96327.28;5042990;28;20036;-74
2021/11/07 01:28:45;;;;;;;23.55;14.45;;;;;;;9.98;72.24;96320.06;5042764;28;20052;-74
2021/11/07 01:31:12;;;;;;;23.63;13.88;;;;;;;9.98;72.57;96310.22;5045508;28;20075;-74
2021/11/07 01:33:37;;;;;;;24.52;14.73;;;;;;;9.97;73.30;96311.22;5042464;28;20042;-73
2021/11/07 01:41:25;;;;;;;27.00;16.25;;;;;;;9.95;73.15;96315.03;5044774;28;20448;-74
2021/11/07 01:43:53;;;;;;;27.27;16.38;;;;;;;9.95;72.52;96313.19;5043910;28;20108;-78
2021/11/07 01:46:30;;;;;;;26.10;15.52;;;;;;;9.98;72.07;96318.25;5042389;28;20040;-74
2021/11/07 01:49:10;;;;;;;24.92;15.65;;;;;;;10.04;72.22;96310.59;5043492;28;20465;-75
2021/11/07 01:51:46;;;;;;;23.48;13.80;;;;;;;10.08;70.89;96320.00;5043490;28;20542;-74
2021/11/07 01:54:22;;;;;;;26.80;14.57;;;;;;;9.97;71.30;96321.09;5044602;28;20029;-73
2021/11/07 01:56:48;;;;;;;24.55;14.77;;;;;;;9.91;72.42;96317.19;5042836;28;20021;-74
2021/11/07 01:59:13;;;;;;;31.58;15.82;;;;;;;9.92;73.13;96316.19;5043445;28;20554;-74
2021/11/07 02:01:39;;;;;;;25.33;15.05;;;;;;;10.03;71.07;96312.44;5041795;28;20035;-74
2021/11/07 02:04:04;;;;;;;31.63;14.63;;;;;;;9.96;71.62;96311.38;5042697;28;20021;-74
2021/11/07 02:06:30;;;;;;;25.10;14.40;;;;;;;9.93;72.30;96303.63;5042638;28;20113;-75
2021/11/07 02:08:55;;;;;;;21.42;14.00;;;;;;;9.94;71.74;96310.66;5041358;28;20029;-74
2021/11/07 02:11:21;;;;;;;31.80;15.77;;;;;;;9.96;71.99;96316.72;5042651;28;20091;-74
2021/11/07 02:13:49;;;;;;;27.95;17.23;;;;;;;9.93;72.56;96312.50;5043855;28;20033;-75
2021/11/07 02:16:14;;;;;;;27.60;15.95;;;;;;;9.93;72.13;96309.81;5042713;28;20510;-73
2021/11/07 02:18:39;;;;;;;26.42;15.70;;;;;;;9.95;71.99;96302.47;5043602;28;20029;-74
2021/11/07 02:21:05;;;;;;;24.40;14.23;;;;;;;9.94;71.21;96308.84;5042997;28;20131;-74
2021/11/07 02:23:31;;;;;;;24.05;14.80;;;;;;;9.88;71.43;96302.22;5043876;28;20074;-75
2021/11/07 02:26:02;;;;;;;25.55;13.68;;;;;;;9.92;71.29;96299.25;5041620;28;20029;-75
2021/11/07 02:28:38;;;;;;;28.63;14.52;;;;;;;9.81;71.58;96293.13;5043044;28;20132;-74
2021/11/07 02:31:05;;;;;;;29.35;15.00;;;;;;;9.72;71.53;96286.81;5042768;28;20061;-75
2021/11/07 02:33:31;;;;;;;24.70;13.20;;;;;;;9.75;71.40;96289.19;5043925;28;20033;-74
2021/11/07 02:36:05;;;;;;;20.80;13.43;;;;;;;9.74;70.93;96287.53;5042422;28;20025;-74
2021/11/07 02:38:30;;;;;;;29.42;14.38;;;;;;;9.73;70.73;96288.53;5042043;28;20025;-74
2021/11/07 02:40:56;;;;;;;21.63;14.57;;;;;;;9.61;70.64;96285.19;5043226;28;20036;-74
2021/11/07 02:43:21;;;;;;;24.58;14.50;;;;;;;9.48;71.39;96280.19;5042833;28;20033;-74
2021/11/07 02:45:47;;;;;;;23.48;14.27;;;;;;;9.49;71.66;96279.22;5042815;28;20025;-75
2021/11/07 02:48:12;;;;;;;25.65;14.60;;;;;;;9.50;72.11;96285.41;5042837;28;20029;-75
2021/11/07 02:50:38;;;;;;;27.13;13.88;;;;;;;9.48;72.44;96293.59;5042728;28;20087;-74
2021/11/07 02:53:03;;;;;;;24.45;13.38;;;;;;;9.55;72.26;96301.03;5042975;28;20037;-74
2021/11/07 02:55:29;;;;;;;25.90;13.40;;;;;;;9.59;71.72;96302.44;5042509;28;20025;-74
2021/11/07 02:57:57;;;;;;;26.00;14.13;;;;;;;9.55;72.03;96292.97;5044869;28;20074;-74
2021/11/07 03:00:23;;;;;;;23.45;13.20;;;;;;;9.52;72.21;96300.34;5042584;28;20033;-75
2021/11/07 03:02:49;;;;;;;28.38;14.00;;;;;;;9.61;72.28;96295.06;5043258;28;20428;-75
2021/11/07 03:05:14;;;;;;;31.52;14.00;;;;;;;9.65;72.70;96296.47;5041440;28;20079;-75
2021/11/07 03:07:41;;;;;;;25.17;14.63;;;;;;;9.62;73.08;96294.09;5043126;28;20024;-74
2021/11/07 03:10:07;;;;;;;23.67;13.82;;;;;;;9.61;72.43;96292.38;5042060;28;20535;-74
2021/11/07 03:12:32;;;;;;;26.15;13.82;;;;;;;9.67;72.39;96294.50;5024416;28;20033;-76
2021/11/07 03:14:58;;;;;;;19.35;13.50;;;;;;;9.69;71.87;96299.69;5041256;28;20021;-74
2021/11/07 03:17:25;;;;;;;23.98;14.27;;;;;;;9.75;71.78;96301.78;5044859;28;20028;-74
2021/11/07 03:19:51;;;;;;;21.70;13.60;;;;;;;9.72;71.91;96299.41;5048244;28;20040;-75
2021/11/07 03:22:18;;;;;;;26.13;14.82;;;;;;;9.79;71.67;96299.63;5045931;28;20029;-74
2021/11/07 03:24:44;;;;;;;25.67;14.23;;;;;;;9.74;72.84;96303.59;5046625;28;20021;-74
2021/11/07 03:27:19;;;;;;;24.98;14.55;;;;;;;9.70;73.37;96299.53;5045151;28;20053;-76
2021/11/07 03:29:47;;;;;;;25.42;15.05;;;;;;;9.69;73.33;96297.84;5044770;28;20029;-75
2021/11/07 03:32:20;;;;;;;26.75;14.90;;;;;;;9.64;73.33;96298.28;5037745;28;20037;-76
2021/11/07 03:34:52;;;;;;;22.55;13.60;;;;;;;9.64;72.94;96298.28;5045245;28;20131;-74
2021/11/07 03:37:26;;;;;;;24.98;14.57;;;;;;;9.71;72.16;96295.88;5046754;28;20056;-75
2021/11/07 03:39:53;;;;;;;25.83;14.00;;;;;;;9.64;72.67;96297.47;5045619;28;20033;-75
2021/11/07 03:42:19;;;;;;;26.83;14.57;;;;;;;9.73;71.91;96295.72;5047743;28;20025;-75
2021/11/07 03:44:44;;;;;;;26.25;14.70;;;;;;;9.69;72.12;96295.16;5045820;28;20425;-73
2021/11/07 03:47:10;;;;;;;23.73;14.70;;;;;;;9.65;72.05;96293.78;5043997;28;20100;-74
2021/11/07 03:49:37;;;;;;;25.23;13.77;;;;;;;9.67;72.13;96296.31;5045891;28;20698;-75
2021/11/07 03:52:03;;;;;;;27.55;14.57;;;;;;;9.63;71.97;96295.75;5045366;28;20104;-76
2021/11/07 03:54:30;;;;;;;21.15;13.77;;;;;;;9.66;71.95;96295.47;5046312;28;20546;-74
2021/11/07 03:56:57;;;;;;;25.05;13.55;;;;;;;9.69;72.08;96295.16;5043636;28;20032;-76
2021/11/07 03:59:23;;;;;;;20.85;13.45;;;;;;;9.63;71.94;96298.44;5046017;28;20082;-74
2021/11/07 04:01:49;;;;;;;24.23;13.30;;;;;;;9.58;72.19;96300.72;5044431;28;20025;-74
2021/11/07 04:04:14;;;;;;;22.88;14.43;;;;;;;9.63;72.21;96301.13;5047193;28;20399;-75
2021/11/07 04:06:40;;;;;;;22.58;13.63;;;;;;;9.64;72.46;96303.66;5046126;28;20032;-76
2021/11/07 04:09:08;;;;;;;25.73;14.85;;;;;;;9.69;72.05;96300.53;5045573;28;20040;-75
2021/11/07 04:11:33;;;;;;;26.95;14.57;;;;;;;9.63;72.81;96306.47;5045195;28;20021;-77
2021/11/07 04:13:59;;;;;;;28.30;14.75;;;;;;;9.53;73.64;96287.78;5044119;28;20036;-74
2021/11/07 04:16:25;;;;;;;21.88;14.20;;;;;;;9.50;73.58;96294.28;5046418;28;20045;-75
2021/11/07 04:18:51;;;;;;;25.55;13.93;;;;;;;9.57;73.52;96299.03;5044297;28;20110;-75
2021/11/07 04:21:17;;;;;;;28.23;14.50;;;;;;;9.59;73.86;96302.44;5044736;28;20118;-75
2021/11/07 04:23:42;;;;;;;28.98;15.45;;;;;;;9.62;74.42;96304.81;5046079;28;20454;-75
2021/11/07 04:26:08;;;;;;;31.17;15.63;;;;;;;9.61;74.56;96303.09;5045385;28;20025;-75
2021/11/07 04:28:34;;;;;;;25.35;17.08;;;;;;;9.66;74.64;96298.13;5045202;28;20049;-75
2021/11/07 04:30:59;;;;;;;24.77;14.75;;;;;;;9.67;74.09;96280.25;5046062;28;20075;-76
2021/11/07 04:33:25;;;;;;;28.63;15.50;;;;;;;9.66;74.08;96290.09;5044788;28;20419;-75
2021/11/07 04:35:51;;;;;;;29.80;15.13;;;;;;;9.63;73.89;96288.59;5044062;28;20116;-76
2021/11/07 04:38:16;;;;;;;26.45;14.13;;;;;;;9.71;72.90;96295.88;5044784;28;20033;-75
2021/11/07 04:40:42;;;;;;;23.90;14.77;;;;;;;9.65;73.63;96283.06;5045710;28;20025;-76
2021/11/07 04:43:07;;;;;;;21.70;14.30;;;;;;;9.58;74.03;96266.75;5044616;28;20395;-75
2021/11/07 04:45:33;;;;;;;21.48;13.65;;;;;;;9.59;74.37;96267.59;5045848;28;20395;-75
2021/11/07 04:47:58;;;;;;;26.65;15.32;;;;;;;9.62;73.69;96265.44;5046387;28;20444;-75
2021/11/07 04:50:23;;;;;;;24.98;13.48;;;;;;;9.63;73.68;96277.88;5046281;28;20025;-75
2021/11/07 04:52:49;;;;;;;25.48;14.45;;;;;;;9.58;74.18;96306.94;5047225;28;20025;-75
2021/11/07 04:55:15;;;;;;;25.80;15.85;;;;;;;9.36;76.11;96314.38;5047708;28;20330;-74
2021/11/07 04:57:43;;;;;;;25.92;15.55;;;;;;;9.36;76.58;96305.50;5029124;28;20029;-74
2021/11/07 05:00:16;;;;;;;24.48;14.95;;;;;;;9.38;76.98;96293.63;5047692;28;20033;-75
2021/11/07 05:02:42;;;;;;;26.75;14.88;;;;;;;9.44;76.96;96276.16;5047196;28;20029;-75
2021/11/07 05:05:07;;;;;;;27.73;16.17;;;;;;;9.47;76.98;96267.81;5029209;28;20025;-74
2021/11/07 05:07:33;;;;;;;28.40;16.27;;;;;;;9.58;76.28;96282.81;5047088;28;20109;-75
2021/11/07 05:09:58;;;;;;;29.30;16.83;;;;;;;9.68;76.38;96281.91;5046714;28;20044;-75
2021/11/07 05:12:24;;;;;;;25.92;16.77;;;;;;;9.69;76.45;96273.72;5047339;28;20025;-76
2021/11/07 05:14:49;;;;;;;34.90;19.13;;;;;;;9.79;75.63;96287.06;5046624;28;20029;-76
2021/11/07 05:17:14;;;;;;;29.88;18.42;;;;;;;9.84;75.77;96270.53;5047354;28;20032;-75
2021/11/07 05:19:40;;;;;;;30.30;18.63;;;;;;;9.84;75.92;96287.47;5046651;28;20032;-78
2021/11/07 05:22:06;;;;;;;37.85;20.15;;;;;;;9.88;76.20;96278.13;5045546;28;20032;-76
2021/11/07 05:24:31;;;;;;;33.47;19.50;;;;;;;9.90;76.17;96280.66;5046839;28;20033;-75
2021/11/07 05:26:57;;;;;;;32.45;18.45;;;;;;;9.97;75.94;96287.09;5045092;28;20503;-74
2021/11/07 05:29:23;;;;;;;32.10;18.40;;;;;;;10.02;76.22;96283.97;5045646;28;20021;-77
2021/11/07 05:31:48;;;;;;;34.92;18.27;;;;;;;10.01;75.98;96280.44;5046262;28;20454;-75
2021/11/07 05:34:14;;;;;;;27.55;17.13;;;;;;;10.04;75.60;96281.13;5047487;28;20029;-74
2021/11/07 05:36:44;;;;;;;25.40;16.63;;;;;;;10.03;74.39;96291.00;5046096;28;20442;-75
2021/11/07 05:39:10;;;;;;;33.45;19.85;;;;;;;10.02;74.68;96282.13;5046203;28;20036;-75
2021/11/07 05:41:36;;;;;;;34.70;19.58;;;;;;;10.05;74.99;96280.13;5046606;28;20400;-76
2021/11/07 05:44:01;;;;;;;31.48;18.45;;;;;;;10.04;75.20;96273.94;5046331;28;20422;-74
2021/11/07 05:46:26;;;;;;;31.23;18.70;;;;;;;10.01;75.65;96291.16;5046474;28;20032;-75
2021/11/07 05:48:52;;;;;;;33.17;18.02;;;;;;;10.13;75.15;96290.94;5044629;28;20061;-77
2021/11/07 05:51:18;;;;;;;36.67;18.90;;;;;;;10.17;74.91;96291.47;5046964;28;20025;-75
2021/11/07 05:53:44;;;;;;;35.88;17.50;;;;;;;10.15;75.10;96291.63;5045960;28;20046;-75
2021/11/07 05:56:09;;;;;;;29.67;18.33;;;;;;;10.20;74.84;96300.06;5045676;28;20242;-76
2021/11/07 05:58:35;;;;;;;29.45;17.75;;;;;;;10.25;74.87;96300.41;5044627;28;20033;-76
2021/11/07 06:01:00;;;;;;;30.58;17.10;;;;;;;10.25;75.11;96295.06;5038480;28;20519;-75
2021/11/07 06:03:25;;;;;;;30.20;17.85;;;;;;;10.30;75.14;96301.81;5037565;28;20411;-76
2021/11/07 06:05:51;;;;;;;36.03;18.27;;;;;;;10.38;74.92;96301.88;5025686;28;20018;-74
2021/11/07 06:08:16;;;;;;;34.38;18.83;;;;;;;10.44;74.91;96293.22;5026761;28;20029;-74
2021/11/07 06:10:42;;;;;;;29.20;18.45;;;;;;;10.47;74.81;96303.66;5025571;28;20030;-74
2021/11/07 06:13:07;;;;;;;29.25;17.85;;;;;;;10.54;74.76;96303.03;5025368;28;20041;-74
2021/11/07 06:15:33;;;;;;;32.25;18.75;;;;;;;10.65;74.26;96308.16;5026896;28;20021;-75
2021/11/07 06:17:58;;;;;;;30.17;18.98;;;;;;;10.66;74.68;96314.34;5040751;28;20017;-75
2021/11/07 06:20:23;;;;;;;39.10;21.08;;;;;;;10.69;74.92;96319.44;5038938;28;20029;-75
2021/11/07 06:22:49;;;;;;;32.88;21.98;;;;;;;10.81;74.71;96320.88;5040776;28;20407;-74
2021/11/07 06:25:15;;;;;;;33.33;20.92;;;;;;;10.90;74.85;96313.69;5044896;28;20021;-76
2021/11/07 06:27:41;;;;;;;35.78;21.00;;;;;;;10.93;75.03;96313.38;5043765;28;20041;-77
2021/11/07 06:30:08;;;;;;;37.72;21.52;;;;;;;11.09;74.69;96317.19;5023657;28;20090;-76
2021/11/07 06:32:34;;;;;;;35.97;21.25;;;;;;;11.11;74.96;96315.16;5023415;28;20053;-77
2021/11/07 06:34:59;;;;;;;34.10;19.65;;;;;;;11.18;74.67;96318.91;5042045;28;20511;-76
2021/11/07 06:37:25;;;;;;;30.73;20.00;;;;;;;11.24;74.74;96312.91;5044731;28;20407;-76
2021/11/07 06:39:51;;;;;;;36.00;21.85;;;;;;;11.31;74.42;96314.94;5044590;28;20037;-76
2021/11/07 06:42:16;;;;;;;37.25;20.75;;;;;;;11.34;74.42;96314.63;5045139;28;20526;-77
2021/11/07 06:44:42;;;;;;;39.10;21.77;;;;;;;11.41;74.78;96320.22;5039999;28;20053;-77
2021/11/07 06:47:08;;;;;;;37.38;20.63;;;;;;;11.56;74.12;96317.78;5043038;28;20663;-74
2021/11/07 06:49:34;;;;;;;33.38;21.42;;;;;;;11.64;74.11;96320.47;5041277;28;20025;-75
2021/11/07 06:52:00;;;;;;;37.17;22.55;;;;;;;11.67;73.86;96320.13;5042076;28;20029;-75
2021/11/07 06:54:27;;;;;;;32.25;20.08;;;;;;;11.78;73.85;96331.63;5041607;28;20029;-76
2021/11/07 06:56:52;;;;;;;38.15;22.20;;;;;;;11.78;73.80;96328.94;5048388;28;20025;-76
2021/11/07 06:59:18;;;;;;;36.80;21.60;;;;;;;11.71;74.36;96332.25;5048336;28;20353;-76
2021/11/07 07:01:44;;;;;;;40.40;22.33;;;;;;;11.65;74.85;96340.13;5049509;28;20483;-74
2021/11/07 07:04:09;;;;;;;40.38;22.58;;;;;;;11.63;75.28;96337.59;5042616;28;20075;-74
2021/11/07 07:06:36;;;;;;;42.58;22.60;;;;;;;11.67;75.29;96336.25;5048206;28;20029;-75
2021/11/07 07:09:08;;;;;;;36.05;21.75;;;;;;;11.69;75.17;96336.94;5048238;28;20040;-75
2021/11/07 07:11:37;;;;;;;41.67;23.88;;;;;;;11.78;75.32;96336.97;5048103;28;20025;-74
2021/11/07 07:14:39;;;;;;;37.97;22.38;;;;;;;11.83;75.17;96329.28;5026755;28;20613;-74
2021/11/07 07:19:51;;;;;;;42.47;23.25;;;;;;;11.97;75.35;96317.91;5046721;28;20040;-75
2021/11/07 07:23:08;;;;;;;35.88;21.15;;;;;;;12.05;75.22;96316.22;5045477;28;20024;-74
2021/11/07 07:34:23;;;;;;;44.33;22.73;;;;;;;12.45;74.03;96306.56;5017440;28;20036;-77
2021/11/07 07:36:28;;;;;;;39.05;23.73;;;;;;;12.51;74.02;96306.91;5029213;28;20112;-76
2021/11/07 07:38:55;;;;;;;41.30;23.52;;;;;;;12.57;74.44;96303.56;5039697;28;20398;-75
2021/11/07 07:41:21;;;;;;;40.80;23.08;;;;;;;12.67;73.63;96308.78;5035680;28;20029;-75
2021/11/07 07:43:47;;;;;;;43.58;23.33;;;;;;;12.79;73.36;96309.25;5041306;28;20121;-77
2021/11/07 07:46:13;;;;;;;43.30;25.00;;;;;;;12.87;73.98;96314.63;5041239;28;20104;-77
2021/11/07 07:48:44;;;;;;;39.72;23.65;;;;;;;12.97;73.99;96309.94;5041601;28;20025;-75
2021/11/07 07:51:11;;;;;;;41.80;23.58;;;;;;;13.03;73.88;96308.38;5037951;28;20191;-75
2021/11/07 07:53:37;;;;;;;45.13;23.17;;;;;;;13.09;73.22;96309.56;5040846;28;20041;-75
2021/11/07 07:56:02;;;;;;;39.33;24.42;;;;;;;13.14;73.45;96303.66;5040455;28;20078;-74
2021/11/07 07:58:28;;;;;;;39.42;25.20;;;;;;;13.16;73.97;96301.63;5039756;28;20013;-75
2021/11/07 08:00:53;;;;;;;40.95;25.95;;;;;;;13.19;74.31;96302.13;5039210;28;20026;-75
2021/11/07 08:03:20;;;;;;;48.63;26.85;;;;;;;13.23;74.28;96297.25;5039612;28;20033;-78
2021/11/07 08:05:45;;;;;;;39.28;24.63;;;;;;;13.28;73.96;96307.50;5023409;28;20086;-77
2021/11/07 08:08:10;;;;;;;42.50;25.05;;;;;;;13.35;73.38;96306.63;5039389;28;20029;-77
2021/11/07 08:10:36;;;;;;;40.05;24.60;;;;;;;13.43;73.63;96313.03;5040982;28;20025;-74
2021/11/07 08:13:02;;;;;;;44.50;25.70;;;;;;;13.48;72.90;96319.56;5038306;28;20032;-74
2021/11/07 08:15:28;;;;;;;45.30;25.67;;;;;;;13.48;72.60;96322.25;5037965;28;20284;-75
2021/11/07 08:17:53;;;;;;;45.05;25.48;;;;;;;13.54;72.21;96328.00;5041466;28;20025;-75
2021/11/07 08:20:19;;;;;;;49.00;26.65;;;;;;;13.54;72.34;96319.91;5037907;28;20033;-76
2021/11/07 08:22:45;;;;;;;46.90;25.98;;;;;;;13.58;72.65;96296.97;5041703;28;20029;-77
2021/11/07 08:25:14;;;;;;;43.22;26.88;;;;;;;13.60;72.85;96286.88;5033265;28;20118;-75
2021/11/07 08:27:41;;;;;;;48.22;27.88;;;;;;;13.64;72.75;96274.72;5043969;28;20405;-77
2021/11/07 08:30:08;;;;;;;43.13;26.00;;;;;;;13.76;72.06;96268.94;5040592;28;20029;-76
2021/11/07 08:32:33;;;;;;;48.90;27.50;;;;;;;13.93;71.63;96267.84;5039989;28;20488;-74
2021/11/07 08:34:59;;;;;;;48.17;27.55;;;;;;;14.03;71.59;96282.94;5041877;28;20075;-76
2021/11/07 08:38:01;;;;;;;51.83;29.08;;;;;;;13.98;71.64;96271.88;5037251;28;20037;-77
2021/11/07 08:40:23;;;;;;;42.90;25.42;;;;;;;13.96;71.71;96270.16;5046508;28;20075;-74
2021/11/07 08:42:53;;;;;;;;;;;;;;;14.01;71.69;96255.31;5036990;28;20036;-76
2021/11/07 09:07:16;;;;;;;38.90;23.45;;;;;;;14.94;70.07;96200.41;5064260;28;20068;-74
2021/11/07 09:09:43;;;;;;;38.40;23.92;;;;;;;14.92;70.27;96213.25;5041923;28;20257;-76
2021/11/07 09:12:09;;;;;;;40.60;22.83;;;;;;;14.98;70.17;96201.69;5041434;28;20491;-76
2021/11/07 09:14:37;;;;;;;36.60;22.65;;;;;;;14.97;70.00;96197.34;5042405;28;20036;-76
2021/11/07 09:17:04;;;;;;;33.95;21.25;;;;;;;15.01;69.52;96211.31;5016543;28;20068;-75
2021/11/07 09:19:31;;;;;;;33.00;20.60;;;;;;;14.91;69.93;96212.41;5040254;28;20414;-76
2021/11/07 09:22:08;;;;;;;33.65;20.05;;;;;;;14.95;69.53;96202.94;5037765;28;20021;-75
2021/11/07 09:24:42;;;;;;;31.35;20.95;;;;;;;14.95;69.73;96205.63;5037839;28;20025;-75
2021/11/07 09:27:15;;;;;;;30.50;19.38;;;;;;;15.05;69.05;96197.25;5039212;28;20088;-77
2021/11/07 09:30:26;;;;;;;26.35;18.55;;;;;;;15.06;69.72;96192.66;5037982;28;20017;-75
2021/11/07 09:35:11;;;;;;;30.92;18.17;;;;;;;15.35;68.48;96190.97;5040397;28;20025;-77
2021/11/07 09:38:13;;;;;;;25.00;16.88;;;;;;;15.53;68.54;96184.31;5043592;28;20039;-75
2021/11/07 09:40:32;;;;;;;24.90;17.27;;;;;;;15.59;67.94;96183.53;5042610;28;20464;-75
2021/11/07 09:48:18;;;;;;;24.55;14.98;;;;;;;16.04;66.27;96166.38;5045494;28;20112;-75
2021/11/07 09:50:45;;;;;;;22.35;14.40;;;;;;;16.10;66.59;96160.19;5044428;28;20021;-77
2021/11/07 09:53:12;;;;;;;23.88;15.15;;;;;;;16.24;65.87;96160.28;5040928;28;20070;-77
2021/11/07 09:55:38;;;;;;;24.52;15.70;;;;;;;16.35;66.25;96156.22;5042909;28;20029;-76
2021/11/07 09:58:04;;;;;;;26.13;15.30;;;;;;;16.49;65.19;96151.75;5042265;28;20060;-75
2021/11/07 10:00:35;;;;;;;22.67;15.18;;;;;;;16.59;64.65;96152.22;5034564;28;20515;-76
2021/11/07 10:03:01;;;;;;;25.02;15.50;;;;;;;16.66;64.71;96145.00;5044921;28;20063;-75
2021/11/07 10:05:27;;;;;;;22.90;15.85;;;;;;;16.68;64.96;96140.22;5044681;28;20417;-79
2021/11/07 10:08:02;;;;;;;21.70;14.80;;;;;;;16.72;64.93;96131.72;5043523;28;20033;-79
2021/11/07 10:10:31;;;;;;;23.15;16.30;;;;;;;16.85;64.32;96129.06;5042152;28;20504;-78
2021/11/07 10:12:58;;;;;;;22.45;14.82;;;;;;;16.89;64.15;96122.22;5035392;28;20453;-75
2021/11/07 10:15:44;;;;;;;21.60;15.43;;;;;;;16.98;64.29;96116.63;5035796;28;20133;-76
2021/11/07 10:18:14;;;;;;;25.42;15.10;;;;;;;16.99;63.65;96119.13;5035613;28;20134;-76
2021/11/07 10:20:50;;;;;;;23.33;16.10;;;;;;;17.04;63.67;96107.69;5039330;28;20047;-76
2021/11/07 10:23:27;;;;;;;23.45;14.85;;;;;;;17.08;63.05;96100.88;5043797;28;20113;-76
2021/11/07 10:28:55;;;;;;;24.95;16.00;;;;;;;17.00;62.94;96088.31;5052002;28;20110;-76
2021/11/07 10:31:31;;;;;;;23.08;15.40;;;;;;;17.11;63.55;96084.19;5051703;28;20048;-76
2021/11/07 10:39:49;;;;;;;21.67;15.68;;;;;;;17.41;62.02;96055.94;5047959;28;20061;-77
2021/11/07 10:42:30;;;;;;;21.25;15.30;;;;;;;17.46;62.42;96053.44;5041800;28;20039;-77
2021/11/07 10:45:13;;;;;;;21.40;15.02;;;;;;;17.49;61.63;96054.91;5047577;28;20531;-75
2021/11/07 10:52:04;;;;;;;25.45;15.10;;;;;;;17.49;61.68;96046.78;5047265;28;20023;-75
2021/11/07 10:53:19;;;;;;;21.30;14.68;;;;;;;17.62;61.80;96027.81;5040388;28;20048;-77
2021/11/07 10:56:03;;;;;;;24.45;15.50;;;;;;;17.73;61.29;96025.53;5038618;28;20095;-76
2021/11/07 10:58:31;;;;;;;22.38;14.98;;;;;;;17.82;61.02;96021.56;5033147;28;20453;-75
2021/11/07 11:00:58;;;;;;;21.40;14.98;;;;;;;17.88;60.73;96015.28;5044832;28;20039;-79
2021/11/07 11:03:24;;;;;;;24.02;14.77;;;;;;;17.81;60.55;96011.75;5026387;28;20411;-75
2021/11/07 11:08:35;;;;;;;20.48;14.98;;;;;;;17.56;61.05;95993.38;5042280;28;20029;-76
2021/11/07 11:11:09;;;;;;;26.58;15.88;;;;;;;17.48;61.23;95993.56;5042833;28;20087;-76
2021/11/07 11:21:43;;;;;;;23.83;15.05;;;;;;;17.68;60.88;95988.19;5039684;28;20506;-75
2021/11/07 11:35:02;;;;;;;20.80;14.10;;;;;;;17.57;60.70;95973.38;5049350;28;20036;-79
2021/11/07 11:40:12;;;;;;;23.85;14.73;;;;;;;17.58;60.86;95969.59;5045518;28;20029;-76
2021/11/07 11:45:04;;;;;;;20.10;14.75;;;;;;;17.56;60.09;95958.13;5041452;28;20030;-81
2021/11/07 12:05:58;;;;;;;22.90;15.10;;;;;;;17.65;61.18;95920.78;5046047;28;20529;-78
2021/11/07 12:08:41;;;;;;;20.83;14.45;;;;;;;17.69;60.36;95918.47;5045358;28;20021;-77
2021/11/07 12:11:32;;;;;;;;;;;;;;;17.75;60.44;95915.75;5044215;28;20108;-74
2021/11/07 12:14:12;;;;;;;22.73;14.90;;;;;;;17.74;60.41;95900.53;5040695;28;19991;-76
2021/11/07 12:16:54;;;;;;;22.40;15.52;;;;;;;17.82;61.04;95904.91;5046487;28;20029;-77
2021/11/07 12:19:33;;;;;;;23.42;15.13;;;;;;;17.92;60.19;95899.88;5038703;28;20108;-77
2021/11/07 12:22:13;;;;;;;25.58;14.38;;;;;;;18.12;59.87;95896.28;5037054;28;20568;-76
2021/11/07 12:24:48;;;;;;;21.33;14.52;;;;;;;18.23;59.54;95893.97;5043196;28;20419;-76
2021/11/07 12:27:35;;;;;;;21.88;15.55;;;;;;;18.24;58.88;95899.19;5041000;28;20067;-77
2021/11/07 12:30:17;;;;;;;23.45;13.73;;;;;;;18.37;58.89;95900.19;5037436;28;20103;-75
2021/11/07 12:32:47;;;;;;;21.30;13.73;;;;;;;18.45;58.72;95888.22;5042871;28;20593;-77
2021/11/07 12:35:21;;;;;;;20.90;14.00;;;;;;;18.55;57.75;95887.78;5033554;28;20843;-77
2021/11/07 12:40:50;;;;;;;21.48;13.45;;;;;;;18.70;57.64;95874.72;5040980;28;20035;-76
2021/11/07 12:43:21;;;;;;;19.92;13.20;;;;;;;18.87;56.98;95863.34;5044403;28;20033;-76
2021/11/07 12:45:49;;;;;;;16.35;12.30;;;;;;;18.99;56.86;95868.94;5045616;28;20488;-78
2021/11/07 12:48:43;;;;;;;17.33;12.68;;;;;;;19.12;56.54;95862.59;5045680;28;20032;-78
2021/11/07 12:51:20;;;;;;;20.00;12.32;;;;;;;19.22;56.36;95862.06;5045745;28;20768;-78
2021/11/07 12:54:16;;;;;;;21.77;12.68;;;;;;;19.36;56.17;95855.47;5045292;28;20116;-76
2021/11/07 12:56:47;;;;;;;17.30;12.63;;;;;;;19.51;55.83;95855.13;5044872;28;20048;-77
2021/11/07 12:59:21;;;;;;;22.92;13.00;;;;;;;19.58;55.39;95860.53;5046282;28;20104;-78
2021/11/07 13:02:12;;;;;;;18.73;13.10;;;;;;;19.73;54.89;95853.91;5029033;28;20036;-78
2021/11/07 13:04:40;;;;;;;21.17;13.68;;;;;;;19.83;54.34;95850.66;5045915;28;20029;-76
2021/11/07 13:07:06;;;;;;;17.77;12.55;;;;;;;19.94;54.04;95852.59;5045370;28;20048;-76
2021/11/07 13:09:36;;;;;;;19.70;11.98;;;;;;;20.01;54.07;95850.66;5038725;28;20943;-76
2021/11/07 13:21:05;;;;;;;18.02;12.73;;;;;;;20.37;52.83;95839.16;5039986;28;20182;-77
2021/11/07 13:31:39;;;;;;;19.60;12.05;;;;;;;20.50;53.27;95838.16;5045430;28;20056;-76
2021/11/07 13:34:11;;;;;;;22.77;12.40;;;;;;;20.50;52.53;95844.44;5039915;28;20045;-76
2021/11/07 13:36:43;;;;;;;18.05;12.75;;;;;;;20.46;52.12;95842.38;5042473;28;20546;-77
2021/11/07 13:39:09;;;;;;;18.55;12.85;;;;;;;20.40;52.13;95844.16;5034826;28;20047;-80
2021/11/07 13:41:35;;;;;;;18.17;12.68;;;;;;;20.29;52.61;95837.59;5040160;28;20025;-77
2021/11/07 13:44:04;;;;;;;20.85;13.73;;;;;;;20.31;52.91;95846.38;5020529;28;20122;-76
2021/11/07 13:46:30;;;;;;;20.95;12.98;;;;;;;20.23;52.92;95838.50;5032854;28;20486;-77
2021/11/07 13:49:01;;;;;;;15.93;12.25;;;;;;;20.19;52.88;95838.13;5038084;28;20032;-77
2021/11/07 13:51:27;;;;;;;18.30;12.30;;;;;;;20.08;53.59;95850.63;5044529;28;20033;-77
2021/11/07 13:53:57;;;;;;;22.52;13.35;;;;;;;20.05;53.83;95847.50;5034525;28;20029;-77
2021/11/07 13:56:23;;;;;;;20.85;14.23;;;;;;;19.97;53.62;95846.72;5044472;28;20029;-76
2021/11/07 13:58:49;;;;;;;19.15;13.32;;;;;;;19.88;53.82;95843.47;5045888;28;20032;-76
2021/11/07 14:01:16;;;;;;;15.63;11.95;;;;;;;19.79;54.37;95843.97;5035688;28;20475;-79
2021/11/07 14:03:42;;;;;;;16.45;12.65;;;;;;;19.73;54.24;95841.09;5036809;28;20098;-76